createdAt,value
2023-03-22T00:00:12.895Z,10.19
2023-03-22T00:00:44.683Z,10.20
2023-03-22T00:01:19.906Z,10.20
2023-03-22T00:01:53.810Z,10.20
2023-03-22T00:02:26.438Z,10.22
2023-03-22T00:02:58.375Z,10.19
2023-03-22T00:03:30.379Z,10.20
2023-03-22T00:04:02.250Z,10.20
2023-03-22T00:04:34.069Z,10.18
2023-03-22T00:05:06.424Z,10.15
2023-03-22T00:05:40.068Z,10.15
2023-03-22T00:06:12.505Z,10.12
2023-03-22T00:06:44.250Z,10.11
2023-03-22T00:07:15.986Z,10.10
2023-03-22T00:07:50.386Z,10.08
2023-03-22T00:08:22.134Z,10.02
2023-03-22T00:08:54.642Z,10.03
2023-03-22T00:09:26.467Z,10.02
2023-03-22T00:09:58.230Z,9.98
2023-03-22T00:10:30.001Z,9.96
2023-03-22T00:11:02.709Z,9.97
2023-03-22T00:11:34.630Z,9.95
2023-03-22T00:12:06.640Z,9.98
2023-03-22T00:12:38.371Z,9.97
2023-03-22T00:13:11.586Z,9.97
2023-03-22T00:13:44.045Z,9.99
2023-03-22T00:14:15.889Z,9.99
2023-03-22T00:14:48.832Z,10.03
2023-03-22T00:15:20.716Z,10.05
2023-03-22T00:15:52.522Z,10.04
2023-03-22T00:16:24.731Z,10.09
2023-03-22T00:16:56.677Z,10.11
2023-03-22T00:17:28.636Z,10.10
2023-03-22T00:18:02.168Z,10.11
2023-03-22T00:18:33.917Z,10.12
2023-03-22T00:19:05.665Z,10.19
2023-03-22T00:19:37.565Z,10.20
2023-03-22T00:20:11.537Z,10.22
2023-03-22T00:20:54.604Z,10.22
2023-03-22T00:21:26.368Z,10.25
2023-03-22T00:21:58.131Z,10.26
2023-03-22T00:22:29.952Z,10.27
2023-03-22T00:23:01.712Z,10.25
2023-03-22T00:23:33.484Z,10.23
2023-03-22T00:24:05.452Z,10.24
2023-03-22T00:24:37.714Z,10.27
2023-03-22T00:25:10.555Z,10.28
2023-03-22T00:25:44.349Z,10.29
2023-03-22T00:26:17.501Z,10.32
2023-03-22T00:26:49.271Z,10.32
2023-03-22T00:27:21.140Z,10.34
2023-03-22T00:27:53.325Z,10.38
2023-03-22T00:28:25.419Z,10.38
2023-03-22T00:28:57.160Z,10.40
2023-03-22T00:29:28.942Z,10.43
2023-03-22T00:30:00.886Z,10.47
2023-03-22T00:30:32.605Z,10.50
2023-03-22T00:31:05.457Z,10.52
2023-03-22T00:31:37.240Z,10.53
2023-03-22T00:32:09.002Z,10.53
2023-03-22T00:32:42.558Z,10.52
2023-03-22T00:33:14.345Z,10.50
2023-03-22T00:33:46.154Z,10.52
2023-03-22T00:34:18.124Z,10.52
2023-03-22T00:34:49.981Z,10.52
2023-03-22T00:35:21.823Z,10.55
2023-03-22T00:36:13.828Z,10.62
2023-03-22T00:36:45.543Z,10.62
2023-03-22T00:37:18.032Z,10.63
2023-03-22T00:37:51.749Z,10.63
2023-03-22T00:38:35.844Z,10.63
2023-03-22T00:39:13.069Z,10.60
2023-03-22T00:39:45.027Z,10.57
2023-03-22T00:40:18.342Z,10.55
2023-03-22T00:40:50.221Z,10.52
2023-03-22T00:41:23.322Z,10.52
2023-03-22T00:41:55.130Z,10.51
2023-03-22T00:42:27.243Z,10.49
2023-03-22T00:42:59.431Z,10.48
2023-03-22T00:43:31.276Z,10.47
2023-03-22T00:44:02.997Z,10.45
2023-03-22T00:44:34.835Z,10.42
2023-03-22T00:45:09.016Z,10.39
2023-03-22T00:45:41.212Z,10.36
2023-03-22T00:46:14.555Z,10.34
2023-03-22T00:46:46.356Z,10.34
2023-03-22T00:47:18.267Z,10.32
2023-03-22T00:47:50.362Z,10.26
2023-03-22T00:48:22.809Z,10.24
2023-03-22T00:48:54.564Z,10.21
2023-03-22T00:49:27.332Z,10.18
2023-03-22T00:49:59.461Z,10.17
2023-03-22T00:50:31.232Z,10.16
2023-03-22T00:51:03.393Z,10.15
2023-03-22T00:51:35.124Z,10.12
2023-03-22T00:52:06.882Z,10.11
2023-03-22T00:52:38.661Z,10.10
2023-03-22T00:53:10.418Z,10.08
2023-03-22T00:53:43.654Z,10.07
2023-03-22T00:54:17.100Z,10.03
2023-03-22T00:54:48.946Z,10.01
2023-03-22T00:55:20.759Z,10.00
2023-03-22T00:55:52.580Z,9.98
2023-03-22T00:56:25.660Z,9.97
2023-03-22T00:56:57.374Z,9.95
2023-03-22T00:57:29.131Z,9.92
2023-03-22T00:58:01.081Z,9.92
2023-03-22T00:58:33.342Z,9.87
2023-03-22T00:59:05.258Z,9.88
2023-03-22T00:59:38.712Z,9.85
2023-03-22T01:00:16.207Z,9.87
2023-03-22T01:00:48.542Z,9.85
2023-03-22T01:01:20.546Z,9.83
2023-03-22T01:01:52.328Z,9.81
2023-03-22T01:02:29.687Z,9.82
2023-03-22T01:03:04.756Z,9.81
2023-03-22T01:03:36.674Z,9.80
2023-03-22T01:04:08.577Z,9.79
2023-03-22T01:04:47.981Z,9.80
2023-03-22T01:05:22.068Z,9.80
2023-03-22T01:05:56.789Z,9.81
2023-03-22T01:06:28.599Z,9.81
2023-03-22T01:07:02.146Z,9.79
2023-03-22T01:07:33.916Z,9.80
2023-03-22T01:08:09.278Z,9.81
2023-03-22T01:08:41.165Z,9.78
2023-03-22T01:09:15.066Z,9.81
2023-03-22T01:09:48.676Z,9.81
2023-03-22T01:10:20.497Z,9.81
2023-03-22T01:10:52.643Z,9.79
2023-03-22T01:11:24.694Z,9.80
2023-03-22T01:11:57.899Z,9.78
2023-03-22T01:12:29.664Z,9.77
2023-03-22T01:13:01.441Z,9.78
2023-03-22T01:13:33.599Z,9.79
2023-03-22T01:14:05.278Z,9.78
2023-03-22T01:14:37.059Z,9.78
2023-03-22T01:15:10.385Z,9.78
2023-03-22T01:15:42.235Z,9.75
2023-03-22T01:16:13.983Z,9.77
2023-03-22T01:16:45.827Z,9.77
2023-03-22T01:17:17.648Z,9.76
2023-03-22T01:17:49.426Z,9.77
2023-03-22T01:18:22.400Z,9.78
2023-03-22T01:18:54.158Z,9.76
2023-03-22T01:19:27.496Z,9.77
2023-03-22T01:19:59.380Z,9.81
2023-03-22T01:20:32.324Z,9.79
2023-03-22T01:21:04.415Z,9.80
2023-03-22T01:21:36.218Z,9.80
2023-03-22T01:22:08.957Z,9.81
2023-03-22T01:22:41.091Z,9.80
2023-03-22T01:23:12.863Z,9.80
2023-03-22T01:23:44.719Z,9.82
2023-03-22T01:24:16.911Z,9.82
2023-03-22T01:24:50.140Z,9.82
2023-03-22T01:25:21.938Z,9.83
2023-03-22T01:25:53.701Z,9.84
2023-03-22T01:26:25.490Z,9.81
2023-03-22T01:26:57.544Z,9.84
2023-03-22T01:27:29.288Z,9.85
2023-03-22T01:28:02.776Z,9.82
2023-03-22T01:28:34.558Z,9.82
2023-03-22T01:29:06.381Z,9.85
2023-03-22T01:29:38.182Z,9.84
2023-03-22T01:30:11.200Z,9.86
2023-03-22T01:30:43.170Z,9.82
2023-03-22T01:31:14.979Z,9.83
2023-03-22T01:31:46.748Z,9.83
2023-03-22T01:32:18.471Z,9.84
2023-03-22T01:32:50.342Z,9.86
2023-03-22T01:33:22.703Z,9.86
2023-03-22T01:33:54.441Z,9.87
2023-03-22T01:34:26.857Z,9.88
2023-03-22T01:34:58.818Z,9.90
2023-03-22T01:35:30.967Z,9.91
2023-03-22T01:36:02.748Z,9.90
2023-03-22T01:36:34.541Z,9.92
2023-03-22T01:37:06.309Z,9.90
2023-03-22T01:37:38.075Z,9.86
2023-03-22T01:38:09.928Z,9.88
2023-03-22T01:38:41.741Z,9.92
2023-03-22T01:39:13.578Z,9.91
2023-03-22T01:39:45.543Z,9.91
2023-03-22T01:40:17.980Z,9.91
2023-03-22T01:40:49.749Z,9.92
2023-03-22T01:41:22.162Z,9.90
2023-03-22T01:41:53.941Z,9.91
2023-03-22T01:42:26.705Z,9.95
2023-03-22T01:42:58.606Z,9.93
2023-03-22T01:43:30.625Z,9.94
2023-03-22T01:44:11.305Z,9.96
2023-03-22T01:44:47.104Z,9.97
2023-03-22T01:45:35.074Z,9.96
2023-03-22T01:46:06.876Z,9.97
2023-03-22T01:46:40.329Z,10.00
2023-03-22T01:47:12.139Z,10.01
2023-03-22T01:47:52.300Z,10.00
2023-03-22T01:48:35.798Z,10.03
2023-03-22T01:49:13.537Z,10.02
2023-03-22T01:49:45.428Z,10.04
2023-03-22T01:50:18.453Z,10.03
2023-03-22T01:51:15.351Z,10.04
2023-03-22T01:51:51.117Z,10.09
2023-03-22T01:52:22.898Z,10.10
2023-03-22T01:52:57.509Z,10.11
2023-03-22T01:53:34.139Z,10.14
2023-03-22T01:54:29.394Z,10.14
2023-03-22T01:55:01.929Z,10.14
2023-03-22T01:55:34.262Z,10.17
2023-03-22T01:56:06.522Z,10.18
2023-03-22T01:56:41.298Z,10.18
2023-03-22T01:57:13.590Z,10.19
2023-03-22T01:57:46.056Z,10.19
2023-03-22T01:58:18.343Z,10.21
2023-03-22T01:58:52.110Z,10.22
2023-03-22T01:59:25.206Z,10.22
2023-03-22T01:59:57.590Z,10.24
2023-03-22T02:00:29.800Z,10.25
2023-03-22T02:01:01.999Z,10.25
2023-03-22T02:01:35.454Z,10.26
2023-03-22T02:02:07.997Z,10.28
2023-03-22T02:02:40.170Z,10.28
2023-03-22T02:03:15.772Z,10.28
2023-03-22T02:04:03.157Z,10.31
2023-03-22T02:04:39.199Z,10.34
2023-03-22T02:05:12.383Z,10.35
2023-03-22T02:05:44.492Z,10.35
2023-03-22T02:06:18.039Z,10.34
2023-03-22T02:06:55.724Z,10.36
2023-03-22T02:07:28.000Z,10.38
2023-03-22T02:07:59.844Z,10.39
2023-03-22T02:08:33.625Z,10.39
2023-03-22T02:09:11.235Z,10.40
2023-03-22T02:09:43.481Z,10.41
2023-03-22T02:10:19.180Z,10.43
2023-03-22T02:10:52.046Z,10.43
2023-03-22T02:11:41.710Z,10.43
2023-03-22T02:12:39.610Z,10.46
2023-03-22T02:13:38.957Z,10.47
2023-03-22T02:14:48.817Z,10.50
2023-03-22T02:15:42.973Z,10.51
2023-03-22T02:16:38.282Z,10.52
2023-03-22T02:17:13.256Z,10.55
2023-03-22T02:17:51.424Z,10.56
2023-03-22T02:18:38.884Z,10.58
2023-03-22T02:19:42.389Z,10.60
2023-03-22T02:20:38.869Z,10.61
2023-03-22T02:21:40.842Z,10.64
2023-03-22T02:22:39.099Z,10.66
2023-03-22T02:23:22.879Z,10.70
2023-03-22T02:24:28.312Z,10.69
2023-03-22T02:25:33.950Z,10.69
2023-03-22T02:26:44.124Z,10.75
2023-03-22T02:27:54.253Z,10.73
2023-03-22T02:28:43.992Z,10.79
2023-03-22T02:29:39.808Z,10.79
2023-03-22T02:30:39.508Z,10.84
2023-03-22T02:31:39.296Z,10.91
2023-03-22T02:32:29.994Z,10.95
2023-03-22T02:33:19.789Z,11.00
2023-03-22T02:34:28.818Z,11.06
2023-03-22T02:35:32.023Z,11.22
2023-03-22T02:36:39.327Z,11.29
2023-03-22T02:37:33.922Z,11.37
2023-03-22T02:38:26.988Z,11.48
2023-03-22T02:39:08.490Z,11.53
2023-03-22T02:39:52.132Z,11.55
2023-03-22T02:40:41.704Z,11.57
2023-03-22T02:41:25.556Z,11.60
2023-03-22T02:42:03.142Z,11.60
2023-03-22T02:42:52.765Z,11.63
2023-03-22T02:43:48.532Z,11.64
2023-03-22T02:44:23.345Z,11.68
2023-03-22T02:44:57.952Z,11.69
2023-03-22T02:45:38.239Z,11.70
2023-03-22T02:46:23.607Z,11.73
2023-03-22T02:47:04.947Z,11.77
2023-03-22T02:47:39.283Z,11.82
2023-03-22T02:48:22.721Z,11.83
2023-03-22T02:49:02.757Z,11.85
2023-03-22T02:49:50.160Z,11.91
2023-03-22T02:50:46.628Z,11.95
2023-03-22T02:51:25.862Z,12.02
2023-03-22T02:52:39.418Z,12.05
2023-03-22T02:53:23.810Z,12.09
2023-03-22T02:54:08.361Z,12.12
2023-03-22T02:54:50.824Z,12.13
2023-03-22T02:55:52.225Z,12.16
2023-03-22T02:56:54.320Z,12.21
2023-03-22T02:57:44.052Z,12.23
2023-03-22T02:58:22.257Z,12.28
2023-03-22T02:58:59.640Z,12.33
2023-03-22T02:59:37.722Z,12.38
2023-03-22T03:00:14.170Z,12.41
2023-03-22T03:00:51.174Z,12.43
2023-03-22T03:01:29.861Z,12.46
2023-03-22T03:02:04.589Z,12.50
2023-03-22T03:02:41.581Z,12.53
2023-03-22T03:03:18.404Z,12.57
2023-03-22T03:03:55.208Z,12.58
2023-03-22T03:04:34.672Z,12.59
2023-03-22T03:05:08.681Z,12.59
2023-03-22T03:05:48.931Z,12.61
2023-03-22T03:06:25.848Z,12.61
2023-03-22T03:07:09.483Z,12.58
2023-03-22T03:07:46.760Z,12.60
2023-03-22T03:08:21.156Z,12.57
2023-03-22T03:08:54.617Z,12.58
2023-03-22T03:09:26.788Z,12.61
2023-03-22T03:09:58.967Z,12.61
2023-03-22T03:10:31.617Z,12.63
2023-03-22T03:11:03.552Z,12.64
2023-03-22T03:11:36.665Z,12.60
2023-03-22T03:12:23.729Z,12.60
2023-03-22T03:12:55.504Z,12.58
2023-03-22T03:13:27.619Z,12.56
2023-03-22T03:13:59.541Z,12.59
2023-03-22T03:14:32.777Z,12.64
2023-03-22T03:15:14.857Z,12.64
2023-03-22T03:15:52.797Z,12.66
2023-03-22T03:16:29.460Z,12.68
2023-03-22T03:17:13.310Z,12.70
2023-03-22T03:17:56.565Z,12.72
2023-03-22T03:19:05.625Z,12.73
2023-03-22T03:20:03.816Z,12.72
2023-03-22T03:21:07.569Z,12.78
2023-03-22T03:21:59.633Z,12.76
2023-03-22T03:23:08.590Z,12.80
2023-03-22T03:23:49.698Z,12.82
2023-03-22T03:24:31.749Z,12.79
2023-03-22T03:25:23.560Z,12.79
2023-03-22T03:25:58.050Z,12.79
2023-03-22T03:26:40.727Z,12.76
2023-03-22T03:27:23.677Z,12.81
2023-03-22T03:28:30.078Z,12.82
2023-03-22T03:29:05.466Z,12.84
2023-03-22T03:29:53.041Z,12.83
2023-03-22T03:30:33.893Z,12.82
2023-03-22T03:31:11.817Z,12.85
2023-03-22T03:32:07.604Z,12.87
2023-03-22T03:32:53.747Z,12.90
2023-03-22T03:33:33.205Z,12.90
2023-03-22T03:34:30.098Z,12.87
2023-03-22T03:35:10.972Z,12.89
2023-03-22T03:36:00.126Z,12.92
2023-03-22T03:36:37.924Z,12.90
2023-03-22T03:37:15.986Z,12.92
2023-03-22T03:37:54.030Z,12.91
2023-03-22T03:38:30.896Z,12.92
2023-03-22T03:39:08.050Z,12.91
2023-03-22T03:39:46.704Z,12.79
2023-03-22T03:40:24.757Z,12.60
2023-03-22T03:41:03.957Z,12.27
2023-03-22T03:41:37.104Z,12.16
2023-03-22T03:42:13.901Z,11.96
2023-03-22T03:42:51.969Z,11.81
2023-03-22T03:43:25.719Z,11.69
2023-03-22T03:43:59.554Z,11.64
2023-03-22T03:44:36.055Z,11.60
2023-03-22T03:45:09.145Z,11.56
2023-03-22T03:45:41.720Z,11.47
2023-03-22T03:46:14.734Z,11.38
2023-03-22T03:46:48.341Z,11.33
2023-03-22T03:47:21.058Z,11.35
2023-03-22T03:47:59.097Z,11.28
2023-03-22T03:48:35.071Z,11.32
2023-03-22T03:49:10.107Z,11.26
2023-03-22T03:49:42.279Z,11.22
2023-03-22T03:50:16.617Z,11.14
2023-03-22T03:50:52.502Z,11.14
2023-03-22T03:51:27.308Z,11.13
2023-03-22T03:52:00.119Z,11.13
2023-03-22T03:52:32.481Z,11.12
2023-03-22T03:53:04.450Z,11.11
2023-03-22T03:53:36.245Z,11.10
2023-03-22T03:54:08.027Z,11.07
2023-03-22T03:54:39.975Z,11.09
2023-03-22T03:55:11.930Z,11.10
2023-03-22T03:55:43.820Z,11.08
2023-03-22T03:56:15.723Z,11.03
2023-03-22T03:56:48.037Z,11.03
2023-03-22T03:57:19.804Z,10.95
2023-03-22T03:57:51.632Z,11.00
2023-03-22T03:58:23.493Z,10.99
2023-03-22T03:58:55.763Z,11.00
2023-03-22T03:59:27.569Z,11.02
2023-03-22T03:59:59.372Z,11.08
2023-03-22T04:00:31.285Z,11.04
2023-03-22T04:01:04.182Z,11.10
2023-03-22T04:01:36.529Z,11.11
2023-03-22T04:02:08.917Z,11.12
2023-03-22T04:02:44.158Z,11.16
2023-03-22T04:03:16.190Z,11.13
2023-03-22T04:03:50.747Z,11.11
2023-03-22T04:04:29.547Z,11.08
2023-03-22T04:05:01.654Z,11.01
2023-03-22T04:05:34.086Z,11.03
2023-03-22T04:06:06.555Z,10.99
2023-03-22T04:06:39.571Z,10.95
2023-03-22T04:07:11.569Z,11.02
2023-03-22T04:07:43.357Z,11.06
2023-03-22T04:08:15.407Z,11.03
2023-03-22T04:08:53.609Z,11.04
2023-03-22T04:09:28.053Z,10.97
2023-03-22T04:10:00.247Z,10.90
2023-03-22T04:10:32.016Z,10.86
2023-03-22T04:11:03.889Z,10.83
2023-03-22T04:11:36.108Z,10.81
2023-03-22T04:12:11.575Z,10.79
2023-03-22T04:12:43.297Z,10.77
2023-03-22T04:13:15.094Z,10.79
2023-03-22T04:13:46.905Z,10.82
2023-03-22T04:14:18.852Z,10.88
2023-03-22T04:14:50.686Z,10.90
2023-03-22T04:15:22.941Z,10.85
2023-03-22T04:15:57.276Z,10.85
2023-03-22T04:16:29.141Z,10.85
2023-03-22T04:17:01.317Z,10.87
2023-03-22T04:17:33.124Z,10.81
2023-03-22T04:18:05.144Z,10.75
2023-03-22T04:18:37.131Z,10.77
2023-03-22T04:19:08.965Z,10.75
2023-03-22T04:19:42.306Z,10.73
2023-03-22T04:20:14.634Z,10.76
2023-03-22T04:20:47.243Z,10.71
2023-03-22T04:21:19.885Z,10.76
2023-03-22T04:21:53.331Z,10.77
2023-03-22T04:22:26.413Z,10.75
2023-03-22T04:22:58.204Z,10.72
2023-03-22T04:23:29.992Z,10.72
2023-03-22T04:24:01.837Z,10.70
2023-03-22T04:24:33.608Z,10.67
2023-03-22T04:25:11.823Z,10.64
2023-03-22T04:25:43.826Z,10.67
2023-03-22T04:26:16.040Z,10.67
2023-03-22T04:26:48.109Z,10.64
2023-03-22T04:27:21.615Z,10.58
2023-03-22T04:27:55.918Z,10.63
2023-03-22T04:28:27.698Z,10.62
2023-03-22T04:28:59.733Z,10.61
2023-03-22T04:29:32.344Z,10.57
2023-03-22T04:30:05.956Z,10.56
2023-03-22T04:30:39.058Z,10.61
2023-03-22T04:31:11.048Z,10.61
2023-03-22T04:31:42.963Z,10.65
2023-03-22T04:32:23.038Z,10.56
2023-03-22T04:32:55.034Z,10.53
2023-03-22T04:33:26.759Z,10.50
2023-03-22T04:34:00.543Z,10.51
2023-03-22T04:34:32.663Z,10.50
2023-03-22T04:35:05.569Z,10.54
2023-03-22T04:35:37.392Z,10.52
2023-03-22T04:36:16.216Z,10.53
2023-03-22T04:36:48.052Z,10.50
2023-03-22T04:37:22.608Z,10.48
2023-03-22T04:37:54.441Z,10.50
2023-03-22T04:38:26.293Z,10.49
2023-03-22T04:38:58.333Z,10.50
2023-03-22T04:39:30.197Z,10.49
2023-03-22T04:40:02.155Z,10.50
2023-03-22T04:40:36.745Z,10.50
2023-03-22T04:41:09.068Z,10.49
2023-03-22T04:41:40.881Z,10.55
2023-03-22T04:42:13.143Z,10.56
2023-03-22T04:42:45.657Z,10.62
2023-03-22T04:43:19.007Z,10.65
2023-03-22T04:43:51.048Z,10.72
2023-03-22T04:44:22.893Z,10.74
2023-03-22T04:44:54.637Z,10.76
2023-03-22T04:45:29.338Z,10.76
2023-03-22T04:46:04.307Z,10.75
2023-03-22T04:46:37.214Z,10.78
2023-03-22T04:47:09.065Z,10.79
2023-03-22T04:47:40.937Z,10.72
2023-03-22T04:48:12.753Z,10.67
2023-03-22T04:48:44.727Z,10.71
2023-03-22T04:49:17.118Z,10.67
2023-03-22T04:49:48.942Z,10.63
2023-03-22T04:50:20.964Z,10.61
2023-03-22T04:50:53.519Z,10.62
2023-03-22T04:51:26.680Z,10.65
2023-03-22T04:51:58.492Z,10.63
2023-03-22T04:52:30.294Z,10.62
2023-03-22T04:53:02.058Z,10.60
2023-03-22T04:53:38.832Z,10.64
2023-03-22T04:54:10.646Z,10.67
2023-03-22T04:54:42.466Z,10.74
2023-03-22T04:55:14.266Z,10.74
2023-03-22T04:55:46.033Z,10.72
2023-03-22T04:56:18.101Z,10.75
2023-03-22T04:56:50.760Z,10.69
2023-03-22T04:57:22.804Z,10.74
2023-03-22T04:57:54.916Z,10.78
2023-03-22T04:58:27.769Z,10.81
2023-03-22T04:58:59.584Z,10.83
2023-03-22T04:59:31.376Z,10.84
2023-03-22T05:00:07.840Z,10.85
2023-03-22T05:00:42.516Z,10.89
2023-03-22T05:01:17.554Z,10.90
2023-03-22T05:01:51.657Z,10.91
2023-03-22T05:02:23.712Z,10.91
2023-03-22T05:02:56.582Z,10.94
2023-03-22T05:03:28.628Z,10.95
2023-03-22T05:04:00.552Z,10.95
2023-03-22T05:04:32.465Z,10.90
2023-03-22T05:05:04.823Z,10.87
2023-03-22T05:05:36.687Z,10.81
2023-03-22T05:06:10.215Z,10.81
2023-03-22T05:06:42.637Z,10.80
2023-03-22T05:07:14.459Z,10.82
2023-03-22T05:07:46.383Z,10.85
2023-03-22T05:08:18.659Z,10.87
2023-03-22T05:08:50.638Z,10.87
2023-03-22T05:09:23.627Z,10.87
2023-03-22T05:09:55.533Z,10.89
2023-03-22T05:10:27.331Z,10.91
2023-03-22T05:11:04.568Z,10.92
2023-03-22T05:11:37.159Z,10.97
2023-03-22T05:12:08.995Z,10.97
2023-03-22T05:12:41.007Z,10.98
2023-03-22T05:13:12.804Z,10.97
2023-03-22T05:13:44.630Z,10.98
2023-03-22T05:14:16.533Z,11.00
2023-03-22T05:14:48.445Z,10.92
2023-03-22T05:15:20.260Z,10.85
2023-03-22T05:15:52.289Z,10.90
2023-03-22T05:16:25.541Z,10.87
2023-03-22T05:16:57.725Z,10.85
2023-03-22T05:17:29.527Z,10.79
2023-03-22T05:18:01.340Z,10.82
2023-03-22T05:18:33.583Z,10.85
2023-03-22T05:19:06.759Z,10.85
2023-03-22T05:19:38.699Z,10.85
2023-03-22T05:20:11.728Z,10.87
2023-03-22T05:20:44.338Z,10.93
2023-03-22T05:21:22.087Z,10.95
2023-03-22T05:21:58.673Z,11.01
2023-03-22T05:22:30.472Z,11.05
2023-03-22T05:23:05.409Z,11.03
2023-03-22T05:23:37.202Z,11.07
2023-03-22T05:24:09.106Z,11.10
2023-03-22T05:24:40.876Z,11.08
2023-03-22T05:25:12.735Z,11.06
2023-03-22T05:25:45.320Z,11.08
2023-03-22T05:26:20.550Z,11.12
2023-03-22T05:26:54.023Z,11.15
2023-03-22T05:27:31.762Z,11.14
2023-03-22T05:28:04.293Z,11.15
2023-03-22T05:28:37.578Z,11.16
2023-03-22T05:29:10.974Z,11.20
2023-03-22T05:29:45.111Z,11.18
2023-03-22T05:30:17.033Z,11.18
2023-03-22T05:30:50.092Z,11.17
2023-03-22T05:31:22.603Z,11.16
2023-03-22T05:31:54.496Z,11.18
2023-03-22T05:32:29.418Z,11.22
2023-03-22T05:33:04.012Z,11.20
2023-03-22T05:33:35.984Z,11.19
2023-03-22T05:34:08.218Z,11.19
2023-03-22T05:34:42.886Z,11.15
2023-03-22T05:35:14.699Z,11.17
2023-03-22T05:35:46.597Z,11.15
2023-03-22T05:36:20.814Z,11.14
2023-03-22T05:36:52.632Z,11.13
2023-03-22T05:37:24.581Z,11.13
2023-03-22T05:37:57.663Z,11.17
2023-03-22T05:38:29.572Z,11.17
2023-03-22T05:39:01.505Z,11.21
2023-03-22T05:39:33.481Z,11.21
2023-03-22T05:40:10.026Z,11.22
2023-03-22T05:40:42.115Z,11.23
2023-03-22T05:41:14.832Z,11.23
2023-03-22T05:41:46.967Z,11.22
2023-03-22T05:42:18.765Z,11.21
2023-03-22T05:42:50.987Z,11.21
2023-03-22T05:43:22.895Z,11.24
2023-03-22T05:43:55.176Z,11.26
2023-03-22T05:44:27.029Z,11.24
2023-03-22T05:44:58.797Z,11.26
2023-03-22T05:45:32.537Z,11.26
2023-03-22T05:46:08.834Z,11.28
2023-03-22T05:46:40.957Z,11.27
2023-03-22T05:47:12.910Z,11.29
2023-03-22T05:47:44.829Z,11.29
2023-03-22T05:48:17.212Z,11.35
2023-03-22T05:48:49.070Z,11.35
2023-03-22T05:49:20.922Z,11.41
2023-03-22T05:49:53.113Z,11.47
2023-03-22T05:50:25.443Z,11.51
2023-03-22T05:50:57.248Z,11.54
2023-03-22T05:51:29.923Z,11.55
2023-03-22T05:52:04.409Z,11.59
2023-03-22T05:52:36.840Z,11.61
2023-03-22T05:53:08.748Z,11.63
2023-03-22T05:53:40.720Z,11.65
2023-03-22T05:54:12.480Z,11.67
2023-03-22T05:54:44.287Z,11.65
2023-03-22T05:55:19.938Z,11.66
2023-03-22T05:55:53.071Z,11.64
2023-03-22T05:56:25.972Z,11.57
2023-03-22T05:56:58.875Z,11.55
2023-03-22T05:57:30.662Z,11.52
2023-03-22T05:58:03.288Z,11.49
2023-03-22T05:58:35.227Z,11.48
2023-03-22T05:59:07.478Z,11.50
2023-03-22T05:59:39.304Z,11.49
2023-03-22T06:00:15.253Z,11.47
2023-03-22T06:00:50.007Z,11.45
2023-03-22T06:01:23.221Z,11.47
2023-03-22T06:01:55.536Z,11.48
2023-03-22T06:02:27.681Z,11.49
2023-03-22T06:03:03.965Z,11.51
2023-03-22T06:03:36.036Z,11.55
2023-03-22T06:04:07.917Z,11.51
2023-03-22T06:04:41.785Z,11.52
2023-03-22T06:05:16.085Z,11.53
2023-03-22T06:05:50.810Z,11.54
2023-03-22T06:06:24.017Z,11.53
2023-03-22T06:06:56.137Z,11.55
2023-03-22T06:07:27.951Z,11.57
2023-03-22T06:08:00.423Z,11.56
2023-03-22T06:08:33.815Z,11.57
2023-03-22T06:09:16.569Z,11.59
2023-03-22T06:09:50.338Z,11.62
2023-03-22T06:10:23.072Z,11.65
2023-03-22T06:10:55.056Z,11.69
2023-03-22T06:11:26.891Z,11.71
2023-03-22T06:11:59.303Z,11.67
2023-03-22T06:12:31.591Z,11.71
2023-03-22T06:13:03.433Z,11.72
2023-03-22T06:13:35.478Z,11.69
2023-03-22T06:14:07.284Z,11.71
2023-03-22T06:14:39.129Z,11.74
2023-03-22T06:15:11.945Z,11.77
2023-03-22T06:15:43.727Z,11.76
2023-03-22T06:16:16.278Z,11.78
2023-03-22T06:16:48.256Z,11.74
2023-03-22T06:17:20.339Z,11.73
2023-03-22T06:17:52.180Z,11.77
2023-03-22T06:18:24.057Z,11.76
2023-03-22T06:18:56.111Z,11.77
2023-03-22T06:19:28.132Z,11.73
2023-03-22T06:20:00.093Z,11.75
2023-03-22T06:20:31.958Z,11.73
2023-03-22T06:21:03.914Z,11.79
2023-03-22T06:21:35.798Z,11.79
2023-03-22T06:22:07.666Z,11.75
2023-03-22T06:22:40.419Z,11.76
2023-03-22T06:23:12.300Z,11.74
2023-03-22T06:23:44.166Z,11.76
2023-03-22T06:24:16.232Z,11.81
2023-03-22T06:24:49.587Z,11.85
2023-03-22T06:25:21.368Z,11.85
2023-03-22T06:25:53.309Z,11.85
2023-03-22T06:26:25.109Z,11.94
2023-03-22T06:26:56.957Z,11.92
2023-03-22T06:27:29.266Z,11.95
2023-03-22T06:28:02.805Z,11.98
2023-03-22T06:28:34.577Z,12.04
2023-03-22T06:29:06.639Z,12.07
2023-03-22T06:29:38.540Z,12.05
2023-03-22T06:30:10.542Z,12.11
2023-03-22T06:30:42.777Z,12.18
2023-03-22T06:31:14.769Z,12.16
2023-03-22T06:31:47.965Z,12.16
2023-03-22T06:32:21.009Z,12.26
2023-03-22T06:32:52.962Z,12.25
2023-03-22T06:33:24.847Z,12.31
2023-03-22T06:33:56.716Z,12.32
2023-03-22T06:34:28.911Z,12.31
2023-03-22T06:35:00.789Z,12.29
2023-03-22T06:35:33.691Z,12.32
2023-03-22T06:36:06.167Z,12.31
2023-03-22T06:36:37.975Z,12.30
2023-03-22T06:37:09.746Z,12.32
2023-03-22T06:37:41.954Z,12.29
2023-03-22T06:38:13.772Z,12.31
2023-03-22T06:38:45.634Z,12.36
2023-03-22T06:39:17.437Z,12.40
2023-03-22T06:39:49.438Z,12.44
2023-03-22T06:40:21.352Z,12.53
2023-03-22T06:40:53.185Z,12.56
2023-03-22T06:41:25.413Z,12.56
2023-03-22T06:41:57.294Z,12.55
2023-03-22T06:42:31.048Z,12.51
2023-03-22T06:43:06.845Z,12.51
2023-03-22T06:43:39.073Z,12.44
2023-03-22T06:44:11.154Z,12.48
2023-03-22T06:44:44.699Z,12.50
2023-03-22T06:45:16.955Z,12.52
2023-03-22T06:45:49.067Z,12.55
2023-03-22T06:46:20.925Z,12.51
2023-03-22T06:46:52.796Z,12.51
2023-03-22T06:47:25.029Z,12.48
2023-03-22T06:47:56.906Z,12.47
2023-03-22T06:48:28.824Z,12.52
2023-03-22T06:49:00.869Z,12.60
2023-03-22T06:49:32.980Z,12.62
2023-03-22T06:50:23.597Z,12.63
2023-03-22T06:50:55.514Z,12.59
2023-03-22T06:51:27.357Z,12.63
2023-03-22T06:52:02.131Z,12.66
2023-03-22T06:52:34.005Z,12.69
2023-03-22T06:53:06.513Z,12.76
2023-03-22T06:53:38.382Z,12.76
2023-03-22T06:54:12.743Z,12.79
2023-03-22T06:54:45.361Z,12.78
2023-03-22T06:55:17.189Z,12.81
2023-03-22T06:55:49.176Z,12.82
2023-03-22T06:56:21.033Z,12.82
2023-03-22T06:56:52.874Z,12.85
2023-03-22T06:57:24.928Z,12.89
2023-03-22T06:57:56.727Z,12.87
2023-03-22T06:58:28.543Z,12.87
2023-03-22T06:59:00.505Z,12.85
2023-03-22T06:59:32.260Z,12.88
2023-03-22T07:00:05.393Z,12.94
2023-03-22T07:00:39.089Z,12.95
2023-03-22T07:01:11.377Z,12.92
2023-03-22T07:01:43.306Z,12.87
2023-03-22T07:02:15.566Z,12.86
2023-03-22T07:02:47.409Z,12.82
2023-03-22T07:03:19.241Z,12.85
2023-03-22T07:03:51.924Z,12.81
2023-03-22T07:04:25.174Z,12.87
2023-03-22T07:04:57.116Z,12.89
2023-03-22T07:05:29.307Z,12.96
2023-03-22T07:06:06.081Z,12.97
2023-03-22T07:06:37.908Z,12.98
2023-03-22T07:07:09.795Z,13.01
2023-03-22T07:07:44.328Z,12.99
2023-03-22T07:08:16.843Z,13.02
2023-03-22T07:08:50.742Z,13.05
2023-03-22T07:09:25.031Z,13.07
2023-03-22T07:09:57.227Z,13.13
2023-03-22T07:10:30.017Z,13.07
2023-03-22T07:11:01.982Z,13.08
2023-03-22T07:11:34.175Z,13.08
2023-03-22T07:12:07.143Z,13.09
2023-03-22T07:12:39.286Z,13.16
2023-03-22T07:13:11.250Z,13.15
2023-03-22T07:13:43.242Z,13.13
2023-03-22T07:14:15.076Z,13.16
2023-03-22T07:14:46.976Z,13.20
2023-03-22T07:15:20.313Z,13.31
2023-03-22T07:16:00.261Z,13.27
2023-03-22T07:16:32.164Z,13.35
2023-03-22T07:17:22.561Z,13.42
2023-03-22T07:17:54.392Z,13.32
2023-03-22T07:18:26.720Z,13.34
2023-03-22T07:18:58.809Z,13.42
2023-03-22T07:19:32.003Z,13.43
2023-03-22T07:20:04.273Z,13.43
2023-03-22T07:20:41.642Z,13.47
2023-03-22T07:21:14.194Z,13.46
2023-03-22T07:21:46.147Z,13.40
2023-03-22T07:22:18.071Z,13.44
2023-03-22T07:22:51.003Z,13.41
2023-03-22T07:23:22.992Z,13.35
2023-03-22T07:23:55.482Z,13.38
2023-03-22T07:24:27.303Z,13.39
2023-03-22T07:25:01.588Z,13.49
2023-03-22T07:25:33.698Z,13.57
2023-03-22T07:26:06.156Z,13.50
2023-03-22T07:26:41.347Z,13.55
2023-03-22T07:27:13.159Z,13.54
2023-03-22T07:27:45.081Z,13.51
2023-03-22T07:28:17.185Z,13.49
2023-03-22T07:28:49.077Z,13.52
2023-03-22T07:29:21.602Z,13.53
2023-03-22T07:29:53.470Z,13.53
2023-03-22T07:30:25.350Z,13.52
2023-03-22T07:31:06.292Z,13.57
2023-03-22T07:31:38.224Z,13.57
2023-03-22T07:32:11.550Z,13.60